createdAt,value
2022-11-08T00:00:08.336Z,7.81
2022-11-08T00:02:55.831Z,7.93
2022-11-08T00:05:41.435Z,7.87
2022-11-08T00:08:27.012Z,7.80
2022-11-08T00:11:12.548Z,7.73
2022-11-08T00:13:58.586Z,7.67
2022-11-08T00:16:26.196Z,7.77
2022-11-08T00:18:53.418Z,7.84
2022-11-08T00:21:20.310Z,7.78
2022-11-08T00:23:47.661Z,7.76
2022-11-08T00:26:14.534Z,7.70
2022-11-08T00:28:41.793Z,7.76
2022-11-08T00:31:08.641Z,7.65
2022-11-08T00:33:35.951Z,7.66
2022-11-08T00:36:03.888Z,7.71
2022-11-08T00:38:31.288Z,7.61
2022-11-08T00:40:58.416Z,7.54
2022-11-08T00:43:25.662Z,7.52
2022-11-08T00:45:52.558Z,7.53
2022-11-08T00:48:20.055Z,7.51
2022-11-08T00:50:47.230Z,7.44
2022-11-08T00:53:14.412Z,7.45
2022-11-08T00:55:41.367Z,7.45
2022-11-08T00:58:08.850Z,7.37
2022-11-08T01:00:35.779Z,7.42
2022-11-08T01:03:21.348Z,7.41
2022-11-08T01:05:49.325Z,7.27
2022-11-08T01:08:17.515Z,7.20
2022-11-08T01:10:45.756Z,7.28
2022-11-08T01:13:13.559Z,7.21
2022-11-08T01:15:41.797Z,7.21
2022-11-08T01:18:10.282Z,7.22
2022-11-08T01:20:40.471Z,7.14
2022-11-08T01:23:08.138Z,7.07
2022-11-08T01:25:38.746Z,7.20
2022-11-08T01:28:06.064Z,7.12
2022-11-08T01:30:36.022Z,7.07
2022-11-08T01:33:03.486Z,7.07
2022-11-08T01:35:31.960Z,7.03
2022-11-08T01:37:59.870Z,6.98
2022-11-08T01:40:27.961Z,7.01
2022-11-08T01:42:55.439Z,6.95
2022-11-08T01:45:40.906Z,7.02
2022-11-08T01:48:08.131Z,6.94
2022-11-08T01:50:34.999Z,6.89
2022-11-08T01:53:02.243Z,6.78
2022-11-08T01:55:36.382Z,6.75
2022-11-08T01:58:06.759Z,6.85
2022-11-08T02:00:34.326Z,6.84
2022-11-08T02:03:01.940Z,6.80
2022-11-08T02:05:29.824Z,6.73
2022-11-08T02:07:57.160Z,6.88
2022-11-08T02:10:26.481Z,6.91
2022-11-08T02:12:54.362Z,6.74
2022-11-08T02:15:23.295Z,6.67
2022-11-08T02:17:50.198Z,6.76
2022-11-08T02:20:17.813Z,6.81
2022-11-08T02:22:55.341Z,6.81
2022-11-08T02:25:22.646Z,6.70
2022-11-08T02:27:49.527Z,6.69
2022-11-08T02:30:16.783Z,6.51
2022-11-08T02:32:43.794Z,6.62
2022-11-08T02:35:13.881Z,6.59
2022-11-08T02:37:41.300Z,6.62
2022-11-08T02:40:08.908Z,6.50
2022-11-08T02:42:37.710Z,6.40
2022-11-08T02:45:05.906Z,6.43
2022-11-08T02:47:33.061Z,6.35
2022-11-08T02:50:00.467Z,6.39
2022-11-08T02:52:27.349Z,6.40
2022-11-08T02:54:54.898Z,6.28
2022-11-08T02:57:21.740Z,6.30
2022-11-08T02:59:49.441Z,6.41
2022-11-08T03:02:16.466Z,6.41
2022-11-08T03:04:43.763Z,6.28
2022-11-08T03:07:10.625Z,6.37
2022-11-08T03:09:38.010Z,6.41
2022-11-08T03:12:04.967Z,6.43
2022-11-08T03:14:32.293Z,6.47
2022-11-08T03:16:59.190Z,6.43
2022-11-08T03:19:26.405Z,6.46
2022-11-08T03:21:53.271Z,6.55
2022-11-08T03:24:20.564Z,6.49
2022-11-08T03:26:47.703Z,6.31
2022-11-08T03:29:14.937Z,6.43
2022-11-08T03:31:41.811Z,6.56
2022-11-08T03:34:10.506Z,6.48
2022-11-08T03:36:37.461Z,6.58
2022-11-08T03:39:04.677Z,6.51
2022-11-08T03:41:31.534Z,6.58
2022-11-08T03:43:58.824Z,6.49
2022-11-08T03:46:25.701Z,6.46
2022-11-08T03:48:52.921Z,6.48
2022-11-08T03:51:19.839Z,6.55
2022-11-08T03:53:47.076Z,6.56
2022-11-08T03:56:14.041Z,6.48
2022-11-08T03:58:41.453Z,6.54
2022-11-08T04:01:08.529Z,6.43
2022-11-08T04:03:36.052Z,6.51
2022-11-08T04:06:03.414Z,6.50
2022-11-08T04:08:30.896Z,6.35
2022-11-08T04:11:18.287Z,6.40
2022-11-08T04:14:04.946Z,6.35
2022-11-08T04:16:32.716Z,6.43
2022-11-08T04:19:19.079Z,6.36
2022-11-08T04:21:47.487Z,6.38
2022-11-08T04:24:14.701Z,6.37
2022-11-08T04:26:41.706Z,6.50
2022-11-08T04:29:09.054Z,6.40
2022-11-08T04:31:36.242Z,6.37
2022-11-08T04:34:03.495Z,6.51
2022-11-08T04:36:30.490Z,6.54
2022-11-08T04:38:57.791Z,6.52
2022-11-08T04:41:25.662Z,6.48
2022-11-08T04:43:54.355Z,6.43
2022-11-08T04:46:25.486Z,6.54
2022-11-08T04:48:54.124Z,6.40
2022-11-08T04:51:23.105Z,6.36
2022-11-08T04:53:51.064Z,6.37
2022-11-08T04:56:19.802Z,6.47
2022-11-08T04:58:48.195Z,6.36
2022-11-08T05:01:19.230Z,6.39
2022-11-08T05:03:47.354Z,6.20
2022-11-08T05:06:16.308Z,6.26
2022-11-08T05:08:43.643Z,6.23
2022-11-08T05:11:12.115Z,6.26
2022-11-08T05:13:39.429Z,6.15
2022-11-08T05:16:08.028Z,6.14
2022-11-08T05:18:35.256Z,6.06
2022-11-08T05:21:20.801Z,5.99
2022-11-08T05:23:48.822Z,5.90
2022-11-08T05:26:16.322Z,5.84
2022-11-08T05:28:43.573Z,5.80
2022-11-08T05:31:10.548Z,5.82
2022-11-08T05:33:37.828Z,5.77
2022-11-08T05:36:06.374Z,5.68
2022-11-08T05:38:33.855Z,5.76
2022-11-08T05:41:04.861Z,5.83
2022-11-08T05:43:32.317Z,5.80
2022-11-08T05:45:59.421Z,5.87
2022-11-08T05:48:26.721Z,5.87
2022-11-08T05:50:54.038Z,5.95
2022-11-08T05:53:21.740Z,5.81
2022-11-08T05:55:49.456Z,5.84
2022-11-08T05:58:17.139Z,5.82
2022-11-08T06:00:44.076Z,5.75
2022-11-08T06:03:11.441Z,5.76
2022-11-08T06:05:38.520Z,5.80
2022-11-08T06:08:05.735Z,5.78
2022-11-08T06:10:32.747Z,5.62
2022-11-08T06:13:01.118Z,5.56
2022-11-08T06:15:28.357Z,5.62
2022-11-08T06:17:55.657Z,5.59
2022-11-08T06:20:22.615Z,5.63
2022-11-08T06:22:50.295Z,5.71
2022-11-08T06:25:17.211Z,5.65
2022-11-08T06:27:44.592Z,5.68
2022-11-08T06:30:11.733Z,5.76
2022-11-08T06:32:39.017Z,5.84
2022-11-08T06:35:06.360Z,5.84
2022-11-08T06:37:33.671Z,5.85
2022-11-08T06:40:00.548Z,5.91
2022-11-08T06:42:27.827Z,5.98
2022-11-08T06:44:54.774Z,6.17
2022-11-08T06:47:21.990Z,6.17
2022-11-08T06:49:49.082Z,6.13
2022-11-08T06:52:16.470Z,6.23
2022-11-08T06:54:43.463Z,6.25
2022-11-08T06:57:10.907Z,6.21
2022-11-08T06:59:38.988Z,6.20
2022-11-08T07:02:07.086Z,6.27
2022-11-08T07:04:34.196Z,6.28
2022-11-08T07:07:01.609Z,6.39
2022-11-08T07:09:28.501Z,6.34
2022-11-08T07:11:56.124Z,6.34
2022-11-08T07:14:22.932Z,6.31
2022-11-08T07:16:50.079Z,6.35
2022-11-08T07:19:17.003Z,6.51
2022-11-08T07:21:44.185Z,6.45
2022-11-08T07:24:11.197Z,6.44
2022-11-08T07:26:38.497Z,6.42
2022-11-08T07:29:05.335Z,6.55
2022-11-08T07:31:32.525Z,6.52
2022-11-08T07:33:59.419Z,6.55
2022-11-08T07:36:26.553Z,6.63
2022-11-08T07:38:53.456Z,6.63
2022-11-08T07:41:20.652Z,6.69
2022-11-08T07:43:48.774Z,6.72
2022-11-08T07:46:16.072Z,6.75
2022-11-08T07:48:43.179Z,6.81
2022-11-08T07:51:10.364Z,6.89
2022-11-08T07:53:37.236Z,6.94
2022-11-08T07:56:04.639Z,6.98
2022-11-08T07:58:31.490Z,7.06
2022-11-08T08:01:03.446Z,7.10
2022-11-08T08:03:30.498Z,7.18
2022-11-08T08:06:00.951Z,7.23
2022-11-08T08:08:29.107Z,7.33
2022-11-08T08:10:57.552Z,7.41
2022-11-08T08:13:24.410Z,7.62
2022-11-08T08:15:51.609Z,7.85
2022-11-08T08:18:21.053Z,8.03
2022-11-08T08:20:48.510Z,8.20
2022-11-08T08:23:15.615Z,8.32
2022-11-08T08:25:42.973Z,8.67
2022-11-08T08:28:10.511Z,8.65
2022-11-08T08:30:38.239Z,8.74
2022-11-08T08:33:27.367Z,8.74
2022-11-08T08:35:55.421Z,8.91
2022-11-08T08:38:22.320Z,9.00
2022-11-08T08:40:50.107Z,9.09
2022-11-08T08:43:17.367Z,9.27
2022-11-08T08:45:44.940Z,9.33
2022-11-08T08:48:11.785Z,9.52
2022-11-08T08:50:38.941Z,9.61
2022-11-08T08:53:05.907Z,9.89
2022-11-08T08:55:35.310Z,10.26
2022-11-08T08:58:02.250Z,10.14
2022-11-08T09:03:16.695Z,10.00
2022-11-08T09:05:46.780Z,9.94
2022-11-08T09:08:14.674Z,9.97
2022-11-08T09:10:42.347Z,10.04
2022-11-08T09:13:09.417Z,10.25
2022-11-08T09:15:36.595Z,10.26
2022-11-08T09:18:03.551Z,10.22
2022-11-08T09:20:30.949Z,10.30
2022-11-08T09:23:01.247Z,10.42
2022-11-08T09:25:28.648Z,10.74
2022-11-08T09:27:56.088Z,10.95
2022-11-08T09:30:23.359Z,10.72
2022-11-08T09:33:02.023Z,10.77
2022-11-08T09:35:30.360Z,10.72
2022-11-08T09:37:57.508Z,10.75
2022-11-08T09:40:30.961Z,10.72
2022-11-08T09:43:18.692Z,10.88
2022-11-08T09:45:50.052Z,10.83
2022-11-08T09:48:22.248Z,10.88
2022-11-08T09:50:52.359Z,10.95
2022-11-08T09:53:19.552Z,10.89
2022-11-08T09:55:46.753Z,10.80
2022-11-08T09:58:27.440Z,10.88
2022-11-08T10:00:54.784Z,11.00
2022-11-08T10:03:24.101Z,11.01
2022-11-08T10:05:54.384Z,10.87
2022-11-08T10:08:26.748Z,10.66
2022-11-08T10:10:58.380Z,10.70
2022-11-08T10:13:43.238Z,10.74
2022-11-08T10:16:10.415Z,10.79
2022-11-08T10:18:40.553Z,10.82
2022-11-08T10:21:13.601Z,10.76
2022-11-08T10:23:46.566Z,10.76
2022-11-08T10:26:24.140Z,10.84
2022-11-08T10:29:07.716Z,10.91
2022-11-08T10:31:35.700Z,11.02
2022-11-08T10:34:10.255Z,11.08
2022-11-08T10:36:42.108Z,11.16
2022-11-08T10:39:09.242Z,11.28
2022-11-08T10:41:43.215Z,11.09
2022-11-08T10:44:15.984Z,11.09
2022-11-08T10:46:47.416Z,11.25
2022-11-08T10:49:14.553Z,11.52
2022-11-08T10:51:42.931Z,11.75
2022-11-08T10:54:30.043Z,11.79
2022-11-08T10:56:57.096Z,11.84
2022-11-08T10:59:29.910Z,11.83
2022-11-08T11:01:56.808Z,11.77
2022-11-08T11:04:28.591Z,11.74
2022-11-08T11:06:55.534Z,11.83
2022-11-08T11:09:26.957Z,11.73
2022-11-08T11:11:58.215Z,11.54
2022-11-08T11:14:25.784Z,11.67
2022-11-08T11:16:55.812Z,11.52
2022-11-08T11:19:23.880Z,11.55
2022-11-08T11:21:56.227Z,11.75
2022-11-08T11:24:23.596Z,11.64
2022-11-08T11:26:56.843Z,11.67
2022-11-08T11:29:27.619Z,11.61
2022-11-08T11:31:55.084Z,11.66
2022-11-08T11:34:27.707Z,11.63
2022-11-08T11:37:15.523Z,11.72
2022-11-08T11:39:54.705Z,11.91
2022-11-08T11:42:45.184Z,12.13
2022-11-08T11:45:21.727Z,12.11
2022-11-08T11:47:54.422Z,11.99
2022-11-08T11:50:29.799Z,12.06
2022-11-08T11:52:58.736Z,11.83
2022-11-08T11:55:43.032Z,11.96
2022-11-08T11:58:29.172Z,12.00
2022-11-08T12:01:02.161Z,11.78
2022-11-08T12:03:43.809Z,11.87
2022-11-08T12:06:10.937Z,11.90
2022-11-08T12:08:47.688Z,11.94
2022-11-08T12:11:28.116Z,12.03
2022-11-08T12:14:07.204Z,11.97
2022-11-08T12:16:42.115Z,12.02
2022-11-08T12:19:15.076Z,12.04
2022-11-08T12:21:41.901Z,11.95
2022-11-08T12:24:27.039Z,12.04
2022-11-08T12:27:12.919Z,11.91
2022-11-08T12:30:03.569Z,11.85
2022-11-08T12:32:33.755Z,11.78
2022-11-08T12:35:00.544Z,11.84
2022-11-08T12:37:39.707Z,11.90
2022-11-08T12:40:17.581Z,11.94
2022-11-08T12:43:00.248Z,12.03
2022-11-08T12:45:46.070Z,12.06
2022-11-08T12:48:12.886Z,11.83
2022-11-08T12:50:45.776Z,11.78
2022-11-08T12:53:12.585Z,11.91
2022-11-08T12:55:42.047Z,11.98
2022-11-08T12:58:24.652Z,11.94
2022-11-08T13:00:53.183Z,12.04
2022-11-08T13:03:29.635Z,12.20
2022-11-08T13:06:04.788Z,12.15
2022-11-08T13:08:39.029Z,12.13
2022-11-08T13:11:09.224Z,12.09
2022-11-08T13:13:50.584Z,12.22
2022-11-08T13:16:21.755Z,12.26
2022-11-08T13:18:56.203Z,12.27
2022-11-08T13:21:26.025Z,12.27
2022-11-08T13:23:53.860Z,12.26
2022-11-08T13:26:27.045Z,12.27
2022-11-08T13:28:54.346Z,12.09
2022-11-08T13:31:40.705Z,12.05
2022-11-08T13:34:13.986Z,11.89
2022-11-08T13:37:12.969Z,11.90
2022-11-08T13:39:40.110Z,11.97
2022-11-08T13:42:16.265Z,12.08
2022-11-08T13:44:52.640Z,12.09
2022-11-08T13:47:31.800Z,12.26
2022-11-08T13:50:17.488Z,12.07
2022-11-08T13:52:44.401Z,12.11
2022-11-08T13:55:30.119Z,12.07
2022-11-08T13:57:58.682Z,11.86
2022-11-08T14:00:43.461Z,11.87
2022-11-08T14:03:29.122Z,11.62
2022-11-08T14:05:56.851Z,11.79
2022-11-08T14:08:24.546Z,11.71
2022-11-08T14:11:14.405Z,11.71
2022-11-08T14:14:11.649Z,11.73
2022-11-08T14:16:45.036Z,11.54
2022-11-08T14:19:17.787Z,11.56
2022-11-08T14:21:49.895Z,11.46
2022-11-08T14:24:19.138Z,11.52
2022-11-08T14:26:46.995Z,11.58
2022-11-08T14:29:22.128Z,11.55
2022-11-08T14:32:00.506Z,11.48
2022-11-08T14:34:28.442Z,11.48
2022-11-08T14:36:56.350Z,11.40
2022-11-08T14:39:28.904Z,11.47
2022-11-08T14:41:57.655Z,11.36
2022-11-08T14:44:25.050Z,11.30
2022-11-08T14:46:53.236Z,11.36
2022-11-08T14:49:21.566Z,11.31
2022-11-08T14:52:07.252Z,11.31
2022-11-08T14:54:39.468Z,11.12
2022-11-08T14:57:26.837Z,11.12
2022-11-08T14:59:56.484Z,11.05
2022-11-08T15:02:24.904Z,11.03
2022-11-08T15:04:52.083Z,10.93
2022-11-08T15:07:20.781Z,10.91
2022-11-08T15:09:48.907Z,10.85
2022-11-08T15:12:20.956Z,10.91
2022-11-08T15:14:50.972Z,10.88
2022-11-08T15:17:31.700Z,10.78
2022-11-08T15:20:06.120Z,10.73
2022-11-08T15:22:35.389Z,10.75
2022-11-08T15:25:14.886Z,10.59
2022-11-08T15:27:54.728Z,10.67
2022-11-08T15:30:23.050Z,10.68
2022-11-08T15:32:50.688Z,10.74
2022-11-08T15:35:29.764Z,10.77
2022-11-08T15:38:04.315Z,10.75
2022-11-08T15:40:32.580Z,10.67
2022-11-08T15:43:00.281Z,10.59
2022-11-08T15:45:29.013Z,10.61
2022-11-08T15:48:08.603Z,10.58
2022-11-08T15:50:35.439Z,10.59
2022-11-08T15:53:03.407Z,10.42
2022-11-08T15:55:38.077Z,10.35
2022-11-08T15:58:10.731Z,10.36
2022-11-08T16:00:38.463Z,10.40
2022-11-08T16:03:05.705Z,10.37
2022-11-08T16:05:32.535Z,10.40
2022-11-08T16:08:00.132Z,10.38
2022-11-08T16:10:46.558Z,10.25
2022-11-08T16:13:19.560Z,10.27
2022-11-08T16:15:48.141Z,10.25
2022-11-08T16:18:16.346Z,10.32
2022-11-08T16:20:43.828Z,10.32
2022-11-08T16:23:11.589Z,10.33
2022-11-08T16:25:39.880Z,10.20
2022-11-08T16:28:14.671Z,10.21
2022-11-08T16:30:46.426Z,10.29
2022-11-08T16:33:18.555Z,10.24
2022-11-08T16:35:45.916Z,10.21
2022-11-08T16:38:13.146Z,10.16
2022-11-08T16:40:42.927Z,10.25
2022-11-08T16:43:11.500Z,10.22
2022-11-08T16:46:03.923Z,10.29
2022-11-08T16:48:26.739Z,10.25
2022-11-08T16:51:01.444Z,10.19
2022-11-08T16:53:32.491Z,10.08
2022-11-08T16:55:59.631Z,10.09
2022-11-08T16:58:28.197Z,10.08
2022-11-08T17:00:56.090Z,10.09
2022-11-08T17:03:24.743Z,10.00
2022-11-08T17:05:52.282Z,10.10
2022-11-08T17:08:20.526Z,10.01
2022-11-08T17:10:47.746Z,10.09
2022-11-08T17:13:16.024Z,10.03
2022-11-08T17:15:43.380Z,9.98
2022-11-08T17:18:12.105Z,10.08
2022-11-08T17:20:39.702Z,9.89
2022-11-08T17:23:07.332Z,9.88
2022-11-08T17:25:35.144Z,9.85
2022-11-08T17:28:02.558Z,9.83
2022-11-08T17:30:29.685Z,9.85
2022-11-08T17:32:56.936Z,9.76
2022-11-08T17:35:24.186Z,9.79
2022-11-08T17:37:53.459Z,9.70
2022-11-08T17:40:20.776Z,9.65
2022-11-08T17:42:48.354Z,9.65
2022-11-08T17:45:15.372Z,9.62
2022-11-08T17:47:42.554Z,9.49
2022-11-08T17:50:10.232Z,9.52
2022-11-08T17:52:40.300Z,9.57
2022-11-08T17:55:07.606Z,9.53
2022-11-08T17:57:34.966Z,9.60
2022-11-08T18:00:02.311Z,9.53
2022-11-08T18:02:29.732Z,9.55
2022-11-08T18:04:57.414Z,9.50
2022-11-08T18:07:24.894Z,9.40
2022-11-08T18:09:51.788Z,9.40
2022-11-08T18:12:19.543Z,9.44
2022-11-08T18:14:46.404Z,9.43
2022-11-08T18:17:13.593Z,9.49
2022-11-08T18:19:40.504Z,9.47
2022-11-08T18:22:07.712Z,9.39
2022-11-08T18:24:34.656Z,9.43
2022-11-08T18:27:02.025Z,9.24
2022-11-08T18:29:28.872Z,9.35
2022-11-08T18:31:56.125Z,9.32
2022-11-08T18:34:22.950Z,9.32
2022-11-08T18:36:50.159Z,9.29
2022-11-08T18:39:19.722Z,9.27
2022-11-08T18:41:47.382Z,9.27
2022-11-08T18:44:14.313Z,9.26
2022-11-08T18:46:43.470Z,9.22
2022-11-08T18:49:11.207Z,9.26
2022-11-08T18:51:52.100Z,9.31
2022-11-08T18:54:20.056Z,9.28
2022-11-08T18:56:47.283Z,9.22
2022-11-08T18:59:14.484Z,9.21
2022-11-08T19:01:41.809Z,9.16
2022-11-08T19:04:08.921Z,9.14
2022-11-08T19:06:37.497Z,9.09
2022-11-08T19:09:04.705Z,9.06
2022-11-08T19:11:31.903Z,9.09
2022-11-08T19:13:59.228Z,9.03
2022-11-08T19:16:26.554Z,9.07
2022-11-08T19:18:53.593Z,9.05
2022-11-08T19:21:25.054Z,9.04
2022-11-08T19:23:53.112Z,8.97
2022-11-08T19:26:22.494Z,9.05
2022-11-08T19:28:50.365Z,9.04
2022-11-08T19:31:19.122Z,9.04
2022-11-08T19:33:47.061Z,9.12
2022-11-08T19:36:15.899Z,9.01
2022-11-08T19:38:43.008Z,8.97
2022-11-08T19:41:20.431Z,8.98
2022-11-08T19:43:47.988Z,8.90
2022-11-08T19:46:20.086Z,8.95
2022-11-08T19:48:49.500Z,9.03
2022-11-08T19:51:18.364Z,9.04
2022-11-08T19:53:45.673Z,8.97
2022-11-08T19:56:17.696Z,9.01
2022-11-08T19:58:45.166Z,9.06
2022-11-08T20:01:23.117Z,8.93
2022-11-08T20:03:50.454Z,8.93
2022-11-08T20:06:19.631Z,8.98
2022-11-08T20:08:51.166Z,8.97
2022-11-08T20:11:20.004Z,8.92
2022-11-08T20:13:47.335Z,8.90
2022-11-08T20:16:22.675Z,8.90
2022-11-08T20:18:50.024Z,8.88
2022-11-08T20:21:18.090Z,8.97
2022-11-08T20:23:46.223Z,8.98
2022-11-08T20:26:16.651Z,8.90
2022-11-08T20:28:55.203Z,8.80
2022-11-08T20:31:24.245Z,8.69
2022-11-08T20:33:53.097Z,8.75
2022-11-08T20:36:22.980Z,8.87
2022-11-08T20:38:50.832Z,8.85
2022-11-08T20:41:18.597Z,8.85
2022-11-08T20:43:47.736Z,8.69
2022-11-08T20:46:15.976Z,8.82
2022-11-08T20:48:44.341Z,8.90
2022-11-08T20:51:13.322Z,8.91
2022-11-08T20:53:40.712Z,8.73
2022-11-08T20:56:09.576Z,8.74
2022-11-08T20:58:38.007Z,8.91
2022-11-08T21:01:06.738Z,8.89
2022-11-08T21:03:34.588Z,8.92
2022-11-08T21:06:05.990Z,8.83
2022-11-08T21:11:21.894Z,8.93
2022-11-08T21:13:49.613Z,8.89
2022-11-08T21:16:47.082Z,8.83
2022-11-08T21:19:04.411Z,8.85
2022-11-08T21:21:31.980Z,8.93
2022-11-08T21:23:59.720Z,8.91
2022-11-08T21:26:26.766Z,8.85
2022-11-08T21:28:54.402Z,8.83
2022-11-08T21:31:21.524Z,8.80
2022-11-08T21:33:48.902Z,8.84
2022-11-08T21:36:17.467Z,8.94
2022-11-08T21:38:44.735Z,8.84
2022-11-08T21:41:12.539Z,8.84
2022-11-08T21:43:45.372Z,8.92
2022-11-08T21:46:15.253Z,8.88
2022-11-08T21:48:42.931Z,8.85
2022-11-08T21:51:10.390Z,8.89
2022-11-08T21:53:47.923Z,8.73
2022-11-08T21:56:19.800Z,8.65
2022-11-08T21:58:47.259Z,8.66
2022-11-08T22:01:14.595Z,8.62
2022-11-08T22:03:41.845Z,8.71
2022-11-08T22:06:08.867Z,8.83
2022-11-08T22:08:36.847Z,8.96
2022-11-08T22:11:04.233Z,8.88
2022-11-08T22:13:31.466Z,8.77
2022-11-08T22:15:58.353Z,8.73
2022-11-08T22:18:43.475Z,8.78
2022-11-08T22:21:31.952Z,8.99
2022-11-08T22:23:59.218Z,8.88
2022-11-08T22:26:26.064Z,8.91
2022-11-08T22:28:53.258Z,8.79
2022-11-08T22:31:21.118Z,8.89
2022-11-08T22:33:48.015Z,8.90
2022-11-08T22:36:16.137Z,9.13
2022-11-08T22:38:42.988Z,9.06
2022-11-08T22:41:10.276Z,8.99
2022-11-08T22:43:37.562Z,9.04
2022-11-08T22:46:04.795Z,8.85
2022-11-08T22:48:31.725Z,9.05
2022-11-08T22:50:59.380Z,9.09
2022-11-08T22:53:26.387Z,8.94
2022-11-08T22:55:53.667Z,8.88
2022-11-08T22:58:20.584Z,9.09
2022-11-08T23:00:49.204Z,8.89
2022-11-08T23:03:16.590Z,8.98
2022-11-08T23:05:48.819Z,8.66
2022-11-08T23:08:16.098Z,8.78
2022-11-08T23:11:01.736Z,8.87
2022-11-08T23:13:47.307Z,8.85
2022-11-08T23:16:35.266Z,8.72
2022-11-08T23:19:21.524Z,8.69
2022-11-08T23:22:07.197Z,8.81
2022-11-08T23:24:34.139Z,8.68
2022-11-08T23:27:20.575Z,8.72
2022-11-08T23:30:06.583Z,8.65
2022-11-08T23:32:34.536Z,8.81
2022-11-08T23:35:01.697Z,9.00
2022-11-08T23:37:29.795Z,8.87
2022-11-08T23:40:15.109Z,9.03
2022-11-08T23:43:00.747Z,8.98
2022-11-08T23:45:27.745Z,8.90
2022-11-08T23:47:55.126Z,9.06
2022-11-08T23:50:22.199Z,9.10
2022-11-08T23:52:49.512Z,9.14
2022-11-08T23:55:16.418Z,9.14
2022-11-08T23:57:43.623Z,9.16
